Time;durP1;ratioP1;P1;durP2;ratioP2;P2;SDS_P1;SDS_P2;PMS_P1;PMS_P2;Temp;Humidity;BMP_temperature;BMP_pressure;BME280_temperature;BME280_humidity;BME280_pressure;Samples;Min_cycle;Max_cycle;Signal;HPM_P1;HPM_P2
2020/12/31 00:01:19;;;;;;;0.40;0.40;;;;;;;2.31;88.03;98623.81;5104543;28;20047;-67
2020/12/31 00:03:44;;;;;;;0.30;0.30;;;;;;;2.33;88.20;98616.97;5104429;28;20376;-65
2020/12/31 00:06:10;;;;;;;0.40;0.40;;;;;;;2.32;87.72;98615.25;5104527;28;20047;-65
2020/12/31 00:08:35;;;;;;;0.30;0.30;;;;;;;2.33;88.01;98614.41;5104420;28;20016;-66
2020/12/31 00:11:00;;;;;;;0.40;0.40;;;;;;;2.35;88.16;98613.53;5104232;28;20028;-65
2020/12/31 00:13:26;;;;;;;0.40;0.40;;;;;;;2.36;88.01;98601.59;5104057;28;20043;-65
2020/12/31 00:15:51;;;;;;;0.38;0.38;;;;;;;2.41;88.07;98610.09;5104281;28;20051;-63
2020/12/31 00:18:16;;;;;;;0.30;0.30;;;;;;;2.40;88.23;98610.97;5119866;28;20032;-65
2020/12/31 00:20:42;;;;;;;0.30;0.30;;;;;;;2.44;88.18;98611.81;5104168;28;20055;-65
2020/12/31 00:23:07;;;;;;;0.40;0.40;;;;;;;2.50;88.00;98611.78;5104201;28;20019;-64
2020/12/31 00:25:36;;;;;;;0.40;0.40;;;;;;;2.45;88.00;98611.81;5103850;28;20467;-65
2020/12/31 00:28:02;;;;;;;0.30;0.30;;;;;;;2.55;87.96;98610.06;5103684;28;20031;-63
2020/12/31 00:30:27;;;;;;;0.40;0.40;;;;;;;2.46;87.96;98617.78;5119741;28;20027;-63
2020/12/31 00:32:52;;;;;;;0.30;0.30;;;;;;;2.39;88.19;98611.84;5104008;28;20114;-63
2020/12/31 00:35:23;;;;;;;0.30;0.30;;;;;;;2.37;88.28;98612.69;5103717;28;20083;-64
2020/12/31 00:37:48;;;;;;;0.40;0.40;;;;;;;2.40;88.24;98612.66;5103703;28;20048;-63
2020/12/31 00:40:14;;;;;;;0.40;0.40;;;;;;;2.35;88.47;98607.56;5103503;28;20061;-64
2020/12/31 00:42:39;;;;;;;0.30;0.30;;;;;;;2.41;88.31;98614.38;5118732;28;20053;-64
2020/12/31 00:45:04;;;;;;;0.47;0.47;;;;;;;2.37;88.51;98608.41;5103809;28;20020;-64
2020/12/31 00:47:30;;;;;;;0.40;0.40;;;;;;;2.38;88.66;98619.53;5103683;28;20032;-63
2020/12/31 00:49:55;;;;;;;0.40;0.40;;;;;;;2.44;88.55;98614.38;5103810;28;20043;-64
2020/12/31 00:52:20;;;;;;;0.40;0.40;;;;;;;2.49;88.22;98615.22;5103762;28;20016;-63
2020/12/31 00:54:46;;;;;;;0.30;0.30;;;;;;;2.46;88.43;98608.38;5103678;28;20027;-64
2020/12/31 00:57:11;;;;;;;0.35;0.35;;;;;;;2.48;88.42;98610.94;5103530;28;20024;-63
2020/12/31 00:59:36;;;;;;;0.40;0.40;;;;;;;2.48;88.33;98614.34;5103366;28;20138;-63
2020/12/31 01:02:02;;;;;;;0.40;0.40;;;;;;;2.51;88.53;98628.00;5103753;28;20040;-63
2020/12/31 01:04:27;;;;;;;0.40;0.40;;;;;;;2.52;88.56;98616.91;5103623;28;20030;-65
2020/12/31 01:06:53;;;;;;;0.30;0.30;;;;;;;2.52;88.55;98622.03;5103362;28;20058;-65
2020/12/31 01:09:18;;;;;;;0.30;0.30;;;;;;;2.53;88.41;98618.59;5103278;28;20054;-65
2020/12/31 01:11:43;;;;;;;0.40;0.40;;;;;;;2.60;88.29;98626.25;5103376;28;20028;-64
2020/12/31 01:14:09;;;;;;;0.40;0.40;;;;;;;2.62;88.05;98618.53;5103630;28;20051;-64
2020/12/31 01:16:34;;;;;;;0.30;0.30;;;;;;;2.57;88.29;98625.41;5103651;28;20042;-64
2020/12/31 01:19:01;;;;;;;0.30;0.30;;;;;;;2.60;88.29;98626.25;5103296;28;20092;-64
2020/12/31 01:21:26;;;;;;;0.32;0.32;;;;;;;2.66;87.91;98621.94;5103495;28;20032;-64
2020/12/31 01:23:52;;;;;;;0.40;0.40;;;;;;;2.62;88.00;98626.22;5103286;28;20100;-65
2020/12/31 01:26:33;;;;;;;0.30;0.30;;;;;;;2.63;88.15;98621.97;5103337;28;20036;-63
2020/12/31 01:29:00;;;;;;;0.40;0.40;;;;;;;2.62;88.20;98626.22;5103438;28;20367;-64
2020/12/31 01:31:25;;;;;;;0.40;0.40;;;;;;;2.59;88.16;98624.53;5103495;28;20035;-64
2020/12/31 01:33:51;;;;;;;0.30;0.30;;;;;;;2.59;88.36;98621.13;5103298;28;20028;-64
2020/12/31 01:36:16;;;;;;;0.40;0.40;;;;;;;2.60;88.28;98622.84;5103225;28;20059;-64
2020/12/31 01:38:41;;;;;;;0.40;0.40;;;;;;;2.63;88.29;98625.41;5102830;28;20034;-65
2020/12/31 01:41:07;;;;;;;0.32;0.32;;;;;;;2.85;87.73;98623.56;5103366;28;20012;-65
2020/12/31 01:43:32;;;;;;;0.30;0.30;;;;;;;2.70;88.09;98623.66;5103136;28;20032;-64
2020/12/31 01:45:57;;;;;;;0.40;0.40;;;;;;;2.69;88.14;98621.94;5103230;28;20089;-64
2020/12/31 01:48:23;;;;;;;0.40;0.40;;;;;;;2.77;87.36;98621.88;5103216;28;20034;-64
2020/12/31 01:50:49;;;;;;;0.38;0.38;;;;;;;2.76;87.60;98633.00;5103228;28;20039;-65
2020/12/31 01:53:14;;;;;;;0.40;0.40;;;;;;;2.66;87.45;98624.50;5105593;28;20020;-64
2020/12/31 01:55:42;;;;;;;0.43;0.43;;;;;;;2.72;87.36;98633.03;5106906;28;20487;-65
2020/12/31 01:58:08;;;;;;;0.30;0.30;;;;;;;2.73;87.23;98642.41;5105432;28;20077;-64
2020/12/31 02:00:33;;;;;;;0.40;0.40;;;;;;;2.65;87.27;98628.78;5107081;28;20084;-65
2020/12/31 02:02:59;;;;;;;0.30;0.30;;;;;;;2.63;87.44;98630.53;5106894;28;20016;-64
2020/12/31 02:05:24;;;;;;;0.40;0.40;;;;;;;2.59;87.72;98637.34;5106688;28;20028;-65
2020/12/31 02:07:49;;;;;;;0.38;0.38;;;;;;;2.60;88.00;98627.97;5106846;28;20442;-64
2020/12/31 02:10:15;;;;;;;0.40;0.40;;;;;;;2.59;87.89;98623.69;5106454;28;20024;-65
2020/12/31 02:12:42;;;;;;;0.40;0.40;;;;;;;2.55;88.07;98625.44;5106441;28;20063;-65
2020/12/31 02:15:07;;;;;;;0.40;0.40;;;;;;;2.62;87.60;98627.97;5106712;28;20372;-65
2020/12/31 02:17:33;;;;;;;0.38;0.38;;;;;;;2.56;87.80;98624.56;5106443;28;20076;-64
2020/12/31 02:19:58;;;;;;;0.30;0.30;;;;;;;2.56;87.89;98626.25;5106482;28;20027;-64
2020/12/31 02:22:24;;;;;;;0.40;0.40;;;;;;;2.56;88.05;98623.69;5106567;28;20384;-65
2020/12/31 02:24:49;;;;;;;0.30;0.30;;;;;;;2.56;88.03;98628.81;5106428;28;20192;-66
2020/12/31 02:27:14;;;;;;;0.30;0.30;;;;;;;2.63;87.70;98627.09;5106266;28;20032;-66
2020/12/31 02:29:40;;;;;;;0.35;0.35;;;;;;;2.57;87.45;98625.41;5105872;28;20016;-64
2020/12/31 02:32:05;;;;;;;0.40;0.40;;;;;;;2.50;87.77;98621.16;5106249;28;20020;-63
2020/12/31 02:34:31;;;;;;;0.30;0.30;;;;;;;2.66;87.24;98624.50;5106188;28;20138;-65
2020/12/31 02:36:56;;;;;;;0.40;0.40;;;;;;;2.53;87.44;98632.25;5106193;28;20108;-65
2020/12/31 02:39:22;;;;;;;0.40;0.40;;;;;;;2.52;87.35;98633.13;5105871;28;20049;-63
2020/12/31 02:41:47;;;;;;;0.30;0.30;;;;;;;2.45;87.45;98624.63;5106118;28;20024;-65
2020/12/31 02:44:13;;;;;;;0.35;0.35;;;;;;;2.45;87.60;98627.19;5106215;28;20024;-66
2020/12/31 02:46:39;;;;;;;0.38;0.38;;;;;;;2.33;87.66;98620.38;5105869;28;20024;-66
2020/12/31 02:49:05;;;;;;;0.40;0.40;;;;;;;2.57;87.41;98622.88;5105934;28;20032;-64
2020/12/31 02:51:31;;;;;;;0.40;0.40;;;;;;;2.42;87.18;98623.75;5106000;28;20016;-66
2020/12/31 02:53:57;;;;;;;0.30;0.30;;;;;;;2.47;86.59;98622.03;5105876;28;20030;-65
2020/12/31 02:56:26;;;;;;;0.40;0.40;;;;;;;2.34;87.31;98626.34;5105697;28;20031;-64
2020/12/31 02:58:52;;;;;;;0.40;0.40;;;;;;;2.30;87.59;98625.50;5105484;28;20050;-64
2020/12/31 03:01:19;;;;;;;0.38;0.38;;;;;;;2.28;87.91;98621.25;5105381;28;20078;-64
2020/12/31 03:03:44;;;;;;;0.30;0.30;;;;;;;2.33;88.14;98620.38;5104791;28;20023;-64
2020/12/31 03:06:10;;;;;;;0.40;0.40;;;;;;;2.32;87.98;98621.25;5105466;28;20024;-65
2020/12/31 03:08:37;;;;;;;0.30;0.30;;;;;;;2.34;87.68;98624.66;5120781;28;20024;-65
2020/12/31 03:11:17;;;;;;;0.40;0.40;;;;;;;2.32;87.94;98621.25;5105288;28;20035;-65
2020/12/31 03:13:42;;;;;;;0.40;0.40;;;;;;;2.29;87.96;98617.84;5103750;28;20097;-64
2020/12/31 03:16:08;;;;;;;0.43;0.43;;;;;;;2.32;88.00;98621.25;5105058;28;20426;-63
2020/12/31 03:18:33;;;;;;;0.40;0.40;;;;;;;2.34;88.10;98613.56;5104994;28;20020;-64
2020/12/31 03:20:58;;;;;;;0.40;0.40;;;;;;;2.37;87.95;98616.09;5105054;28;20031;-65
2020/12/31 03:23:24;;;;;;;0.30;0.30;;;;;;;2.30;88.14;98617.00;5103674;28;20016;-64
2020/12/31 03:25:49;;;;;;;0.40;0.40;;;;;;;2.34;87.91;98605.88;5104769;28;20020;-65
2020/12/31 03:28:15;;;;;;;0.40;0.40;;;;;;;2.26;88.02;98620.41;5104763;28;20016;-64
2020/12/31 03:30:42;;;;;;;0.30;0.30;;;;;;;2.29;87.98;98620.41;5120408;28;20391;-65
2020/12/31 03:33:12;;;;;;;0.40;0.40;;;;;;;2.26;88.01;98615.28;5104841;28;20345;-63
2020/12/31 03:35:43;;;;;;;0.40;0.40;;;;;;;2.22;88.25;98614.47;5104627;28;20016;-65
2020/12/31 03:38:10;;;;;;;0.40;0.40;;;;;;;2.31;87.77;98606.75;5103282;28;20070;-66
2020/12/31 03:40:36;;;;;;;0.35;0.35;;;;;;;2.26;87.76;98599.91;5104524;28;20052;-65
2020/12/31 03:43:03;;;;;;;0.30;0.30;;;;;;;2.22;87.83;98605.06;5104425;28;20055;-66
2020/12/31 03:45:28;;;;;;;0.40;0.40;;;;;;;2.21;88.23;98608.47;5104756;28;20024;-65
2020/12/31 03:47:53;;;;;;;0.40;0.40;;;;;;;2.25;88.17;98613.59;5104464;28;20046;-65
2020/12/31 03:50:19;;;;;;;0.35;0.35;;;;;;;2.27;88.03;98602.47;5104470;28;20036;-66
2020/12/31 03:52:44;;;;;;;0.40;0.40;;;;;;;2.22;88.23;98614.47;5104354;28;20373;-65
2020/12/31 03:55:10;;;;;;;0.40;0.40;;;;;;;2.26;88.24;98607.59;5119878;28;20042;-65
2020/12/31 03:57:35;;;;;;;0.30;0.30;;;;;;;2.26;88.11;98608.47;5104100;28;20024;-64
2020/12/31 04:00:01;;;;;;;0.40;0.40;;;;;;;2.21;88.29;98607.63;5104056;28;20024;-64
2020/12/31 04:02:26;;;;;;;0.40;0.40;;;;;;;2.23;88.20;98606.78;5104316;28;20024;-64
2020/12/31 04:04:52;;;;;;;0.40;0.40;;;;;;;2.22;88.19;98606.78;5103944;28;20024;-65
2020/12/31 04:07:17;;;;;;;0.35;0.35;;;;;;;2.20;88.28;98603.38;5104183;28;20049;-66
2020/12/31 04:09:42;;;;;;;0.40;0.40;;;;;;;2.18;88.52;98600.81;5103954;28;20051;-67
2020/12/31 04:12:08;;;;;;;0.30;0.30;;;;;;;2.30;87.96;98607.59;5103680;28;20028;-67
2020/12/31 04:14:33;;;;;;;0.40;0.40;;;;;;;2.38;87.54;98609.28;5119597;28;20020;-68
2020/12/31 04:16:59;;;;;;;0.40;0.40;;;;;;;2.26;87.66;98605.03;5102914;28;20069;-68
2020/12/31 04:19:24;;;;;;;0.40;0.40;;;;;;;2.21;87.88;98611.03;5103689;28;20024;-68
2020/12/31 04:21:52;;;;;;;0.40;0.40;;;;;;;2.15;87.94;98600.81;5103730;28;20039;-68
2020/12/31 04:24:17;;;;;;;0.30;0.30;;;;;;;2.17;88.17;98605.94;5103671;28;20027;-68
2020/12/31 04:26:50;;;;;;;0.40;0.40;;;;;;;2.18;88.37;98605.94;5103365;28;20023;-67
2020/12/31 04:29:16;;;;;;;0.40;0.40;;;;;;;2.17;88.67;98614.44;5103807;28;20235;-66
2020/12/31 04:31:42;;;;;;;0.40;0.40;;;;;;;2.19;88.24;98605.06;5103637;28;20024;-66
2020/12/31 04:34:07;;;;;;;0.30;0.30;;;;;;;2.21;88.46;98613.59;5103516;28;20024;-65
2020/12/31 04:36:33;;;;;;;0.40;0.40;;;;;;;2.20;88.41;98618.72;5103432;28;20542;-65
2020/12/31 04:38:58;;;;;;;0.40;0.40;;;;;;;2.22;88.58;98619.59;5103371;28;20091;-65
2020/12/31 04:41:24;;;;;;;0.30;0.30;;;;;;;2.26;88.29;98616.16;5103646;28;20092;-65
2020/12/31 04:43:49;;;;;;;0.40;0.40;;;;;;;2.21;88.48;98617.88;5103241;28;20032;-67
2020/12/31 04:46:20;;;;;;;0.40;0.40;;;;;;;2.33;88.24;98616.97;5103275;28;20312;-66
2020/12/31 04:48:55;;;;;;;0.30;0.30;;;;;;;2.24;88.45;98617.84;5102264;28;20059;-65
2020/12/31 04:51:24;;;;;;;0.30;0.30;;;;;;;2.23;88.47;98609.34;5103358;28;20146;-65
2020/12/31 04:53:50;;;;;;;0.40;0.40;;;;;;;2.33;87.97;98616.97;5103236;28;20028;-63
2020/12/31 04:56:18;;;;;;;0.40;0.40;;;;;;;2.33;88.05;98622.94;5103451;28;20024;-64
2020/12/31 04:58:44;;;;;;;0.40;0.40;;;;;;;2.28;87.93;98618.69;5102846;28;20046;-64
2020/12/31 05:01:09;;;;;;;0.40;0.40;;;;;;;2.24;88.32;98617.84;5103269;28;20051;-65
2020/12/31 05:03:35;;;;;;;0.40;0.40;;;;;;;2.22;88.54;98617.03;5118682;28;20028;-65
2020/12/31 05:06:03;;;;;;;0.40;0.40;;;;;;;2.22;88.55;98625.53;5103226;28;20127;-66
2020/12/31 05:08:29;;;;;;;0.40;0.40;;;;;;;2.20;88.62;98617.03;5118624;28;20020;-66
2020/12/31 05:10:56;;;;;;;0.40;0.40;;;;;;;2.22;88.86;98622.16;5101674;28;20028;-66
2020/12/31 05:13:22;;;;;;;0.40;0.40;;;;;;;2.28;88.83;98624.69;5102669;28;20432;-66
2020/12/31 05:15:47;;;;;;;0.30;0.30;;;;;;;2.30;88.78;98620.38;5103212;28;20467;-66
2020/12/31 05:18:17;;;;;;;0.50;0.50;;;;;;;2.39;88.68;98627.19;5102893;28;20016;-66
2020/12/31 05:20:46;;;;;;;0.30;0.30;;;;;;;2.41;88.39;98622.91;5103063;28;20032;-66
2020/12/31 05:23:18;;;;;;;0.40;0.40;;;;;;;2.39;88.44;98627.19;5103078;28;20041;-65
2020/12/31 05:25:44;;;;;;;0.40;0.40;;;;;;;2.33;88.62;98627.22;5118560;28;20024;-66
2020/12/31 05:28:28;;;;;;;0.40;0.40;;;;;;;2.44;88.27;98633.16;5105337;28;20024;-67
2020/12/31 05:31:02;;;;;;;0.40;0.40;;;;;;;2.39;88.40;98634.03;5106887;28;20039;-67
2020/12/31 05:33:29;;;;;;;0.30;0.30;;;;;;;2.33;88.46;98627.22;5122658;28;20446;-66
2020/12/31 05:36:19;;;;;;;0.40;0.40;;;;;;;2.39;88.41;98642.56;5106731;28;20028;-66
2020/12/31 05:38:54;;;;;;;0.40;0.40;;;;;;;2.32;88.63;98636.59;5122381;28;20032;-66
2020/12/31 05:41:21;;;;;;;0.32;0.32;;;;;;;2.43;88.21;98636.56;5106901;28;20028;-67
2020/12/31 05:43:53;;;;;;;0.30;0.30;;;;;;;2.42;88.23;98639.13;5106560;28;20028;-67
2020/12/31 05:46:20;;;;;;;0.40;0.40;;;;;;;2.39;88.43;98645.13;5106512;28;20024;-66
2020/12/31 05:48:54;;;;;;;0.40;0.40;;;;;;;2.38;88.54;98648.53;5106760;28;20024;-66
2020/12/31 05:51:27;;;;;;;0.30;0.30;;;;;;;2.38;88.65;98650.25;5106548;28;20016;-67
2020/12/31 05:53:54;;;;;;;0.30;0.30;;;;;;;2.41;88.68;98650.25;5106348;28;20020;-67
2020/12/31 05:56:20;;;;;;;0.40;0.40;;;;;;;2.47;88.28;98651.09;5106530;28;20148;-67
2020/12/31 05:58:50;;;;;;;0.40;0.40;;;;;;;2.42;88.43;98655.38;5106113;28;20373;-67
2020/12/31 06:01:18;;;;;;;0.32;0.32;;;;;;;2.41;88.68;98651.06;5106471;28;20020;-68
2020/12/31 06:03:52;;;;;;;0.40;0.40;;;;;;;2.37;88.80;98661.34;5106169;28;20028;-66
2020/12/31 06:06:22;;;;;;;0.38;0.38;;;;;;;2.38;88.96;98665.63;5106378;28;20074;-66
2020/12/31 06:08:54;;;;;;;0.40;0.40;;;;;;;2.41;89.03;98663.88;5106229;28;20020;-67
2020/12/31 06:11:37;;;;;;;0.40;0.40;;;;;;;2.45;88.78;98662.19;5104706;28;20073;-67
2020/12/31 06:14:03;;;;;;;0.40;0.40;;;;;;;2.48;88.68;98662.16;5106272;28;20028;-67
2020/12/31 06:16:36;;;;;;;0.30;0.30;;;;;;;2.45;88.83;98667.28;5104694;28;20072;-67
2020/12/31 06:19:28;;;;;;;0.30;0.30;;;;;;;2.37;89.12;98664.75;5105854;28;20056;-68
2020/12/31 06:22:04;;;;;;;0.30;0.30;;;;;;;2.42;89.28;98662.19;5106299;28;20083;-66
2020/12/31 06:24:46;;;;;;;0.40;0.40;;;;;;;2.43;89.16;98664.75;5105872;28;20024;-65
2020/12/31 06:27:13;;;;;;;;;;;;;;;2.50;88.99;98674.97;5106137;28;20043;-65
2020/12/31 06:29:46;;;;;;;0.40;0.40;;;;;;;2.47;88.81;98673.28;5106008;28;19908;-65
2020/12/31 06:32:39;;;;;;;0.35;0.35;;;;;;;2.41;89.38;98678.41;5106159;28;20056;-65
2020/12/31 06:35:09;;;;;;;0.30;0.30;;;;;;;2.46;89.22;98679.28;5105708;28;20110;-65
2020/12/31 06:37:35;;;;;;;0.30;0.30;;;;;;;2.43;89.49;98681.84;5105811;28;20047;-66
2020/12/31 06:40:30;;;;;;;0.40;0.40;;;;;;;2.43;89.63;98680.09;5104500;28;20047;-65
2020/12/31 06:43:14;;;;;;;0.30;0.30;;;;;;;2.45;89.96;98678.41;5105578;28;20115;-65
2020/12/31 06:45:39;;;;;;;0.35;0.35;;;;;;;2.55;89.70;98693.75;5105784;28;20028;-65
2020/12/31 06:48:23;;;;;;;0.40;0.40;;;;;;;2.56;90.05;98692.88;5105668;28;20050;-65
2020/12/31 06:51:06;;;;;;;0.32;0.32;;;;;;;2.59;89.63;98696.28;5105667;28;20046;-65
2020/12/31 06:53:38;;;;;;;0.32;0.32;;;;;;;2.55;89.79;98701.44;5105765;28;20031;-63
2020/12/31 06:56:04;;;;;;;0.40;0.40;;;;;;;2.50;90.03;98701.44;5105537;28;20036;-64
2020/12/31 06:58:30;;;;;;;0.30;0.30;;;;;;;2.51;90.20;98698.00;5105532;28;20049;-64
2020/12/31 07:00:56;;;;;;;0.40;0.40;;;;;;;2.55;90.32;98706.56;5105789;28;20043;-64
2020/12/31 07:03:40;;;;;;;0.30;0.30;;;;;;;2.60;90.24;98710.78;5105859;28;20094;-64
2020/12/31 07:06:20;;;;;;;0.30;0.30;;;;;;;2.65;89.93;98715.06;5105556;28;20396;-63
2020/12/31 07:08:50;;;;;;;0.40;0.40;;;;;;;2.65;90.01;98718.47;5105566;28;20019;-63
2020/12/31 07:11:38;;;;;;;0.30;0.30;;;;;;;2.67;89.76;98716.75;5105517;28;20084;-64
2020/12/31 07:14:25;;;;;;;0.30;0.30;;;;;;;2.59;89.96;98721.03;5105451;28;20020;-63
2020/12/31 07:17:02;;;;;;;0.40;0.40;;;;;;;2.63;89.92;98727.88;5105246;28;20147;-64
2020/12/31 07:19:39;;;;;;;0.30;0.30;;;;;;;2.62;89.68;98721.03;5105328;28;20024;-64
2020/12/31 07:22:10;;;;;;;0.30;0.30;;;;;;;2.62;89.93;98718.47;5105362;28;20032;-64
2020/12/31 07:24:57;;;;;;;0.38;0.38;;;;;;;2.63;89.79;98721.91;5105136;28;20035;-64
2020/12/31 07:27:23;;;;;;;0.40;0.40;;;;;;;2.62;89.57;98721.03;5101056;28;20127;-65
2020/12/31 07:30:03;;;;;;;0.40;0.40;;;;;;;2.58;90.18;98725.34;5105118;28;20038;-63
2020/12/31 07:32:52;;;;;;;0.40;0.40;;;;;;;2.66;89.62;98727.00;5105225;28;20020;-63
2020/12/31 07:35:29;;;;;;;0.30;0.30;;;;;;;2.70;89.61;98732.13;5105225;28;20031;-63
2020/12/31 07:38:02;;;;;;;0.40;0.40;;;;;;;2.66;89.60;98734.69;5104776;28;20528;-63
2020/12/31 07:40:31;;;;;;;0.30;0.30;;;;;;;2.65;89.65;98738.97;5104884;28;20039;-63
2020/12/31 07:42:57;;;;;;;0.40;0.40;;;;;;;2.64;89.73;98733.84;5104815;28;20098;-62
2020/12/31 07:45:24;;;;;;;0.30;0.30;;;;;;;2.68;89.31;98736.41;5105005;28;20087;-62
2020/12/31 07:47:51;;;;;;;0.30;0.30;;;;;;;2.78;89.01;98738.94;5104812;28;20091;-63
2020/12/31 07:50:16;;;;;;;0.40;0.40;;;;;;;2.62;89.40;98733.84;5104768;28;20016;-63
2020/12/31 07:52:41;;;;;;;0.30;0.30;;;;;;;2.62;89.62;98744.09;5104869;28;20106;-63
2020/12/31 07:55:07;;;;;;;0.30;0.30;;;;;;;2.71;88.98;98746.66;5104634;28;20051;-64
2020/12/31 07:57:32;;;;;;;0.30;0.30;;;;;;;2.59;89.43;98754.34;5104511;28;20024;-63
2020/12/31 07:59:58;;;;;;;0.40;0.40;;;;;;;2.62;89.53;98745.81;5104519;28;20035;-63
2020/12/31 08:02:23;;;;;;;0.32;0.32;;;;;;;2.60;89.40;98745.81;5104760;28;20023;-63
2020/12/31 08:04:48;;;;;;;0.30;0.30;;;;;;;2.48;89.85;98750.13;5120179;28;20027;-63
2020/12/31 08:07:15;;;;;;;0.30;0.30;;;;;;;2.44;90.22;98752.69;5104741;28;20024;-64
2020/12/31 08:09:42;;;;;;;0.30;0.30;;;;;;;2.41;90.07;98752.69;5104456;28;20031;-64
2020/12/31 08:12:09;;;;;;;0.30;0.30;;;;;;;2.41;90.15;98761.22;5104297;28;20028;-64
2020/12/31 08:14:45;;;;;;;0.40;0.40;;;;;;;2.41;90.04;98756.09;5104639;28;20077;-62
2020/12/31 08:17:12;;;;;;;0.40;0.40;;;;;;;2.40;90.25;98756.09;5104477;28;20104;-64
2020/12/31 08:19:39;;;;;;;0.30;0.30;;;;;;;2.47;89.75;98758.69;5104393;28;20016;-63
2020/12/31 08:22:29;;;;;;;0.40;0.40;;;;;;;2.40;89.86;98756.97;5104594;28;20017;-64
2020/12/31 08:25:14;;;;;;;0.40;0.40;;;;;;;2.39;89.98;98762.94;5104301;28;20353;-64
2020/12/31 08:27:41;;;;;;;0.38;0.38;;;;;;;2.28;90.07;98760.41;5104170;28;20051;-63
2020/12/31 08:30:08;;;;;;;0.35;0.35;;;;;;;2.26;90.09;98751.88;5104122;28;20073;-63
2020/12/31 08:32:49;;;;;;;0.40;0.40;;;;;;;2.31;90.13;98768.09;5104342;28;20024;-64
2020/12/31 08:35:23;;;;;;;0.30;0.30;;;;;;;2.35;90.04;98772.34;5104324;28;20026;-64
2020/12/31 08:38:00;;;;;;;0.40;0.40;;;;;;;2.36;89.95;98768.06;5102841;28;20066;-63
2020/12/31 08:40:25;;;;;;;0.35;0.35;;;;;;;2.25;89.79;98757.84;5104164;28;20112;-63
2020/12/31 08:42:53;;;;;;;0.30;0.30;;;;;;;2.43;89.63;98781.75;5102553;28;20027;-64
2020/12/31 08:45:30;;;;;;;0.40;0.40;;;;;;;2.43;89.62;98777.44;5104305;28;20028;-64
2020/12/31 08:48:13;;;;;;;0.30;0.30;;;;;;;2.40;89.81;98782.56;5104070;28;20031;-63
2020/12/31 08:50:39;;;;;;;0.40;0.40;;;;;;;2.42;89.86;98785.13;5119866;28;20095;-64
2020/12/31 08:53:04;;;;;;;0.30;0.30;;;;;;;2.39;90.19;98780.00;5104302;28;20028;-63
2020/12/31 08:55:34;;;;;;;0.38;0.38;;;;;;;2.43;90.18;98795.38;5103963;28;20077;-64
2020/12/31 08:58:11;;;;;;;0.30;0.30;;;;;;;2.44;90.15;98797.09;5103484;28;20115;-65
2020/12/31 09:00:37;;;;;;;0.40;0.40;;;;;;;2.50;90.14;98800.50;5103996;28;20125;-63
2020/12/31 09:03:03;;;;;;;0.30;0.30;;;;;;;2.50;90.09;98803.91;5103289;28;20042;-65
2020/12/31 09:05:28;;;;;;;0.40;0.40;;;;;;;2.49;89.64;98802.22;5104037;28;20027;-65
2020/12/31 09:08:01;;;;;;;0.40;0.40;;;;;;;2.50;89.98;98810.75;5104076;28;20019;-63
2020/12/31 09:10:31;;;;;;;0.40;0.40;;;;;;;2.49;90.20;98812.47;5103631;28;20046;-63
2020/12/31 09:12:56;;;;;;;0.40;0.40;;;;;;;2.62;89.70;98820.13;5102104;28;20042;-65
2020/12/31 09:15:22;;;;;;;0.40;0.40;;;;;;;2.60;89.91;98815.00;5103973;28;20020;-66
2020/12/31 09:17:48;;;;;;;0.30;0.30;;;;;;;2.60;89.94;98820.97;5119020;28;20036;-65
2020/12/31 09:20:18;;;;;;;0.40;0.40;;;;;;;2.62;89.94;98815.00;5103428;28;20020;-67
2020/12/31 09:22:44;;;;;;;0.30;0.30;;;;;;;2.60;89.82;98825.25;5103622;28;20058;-66
2020/12/31 09:25:10;;;;;;;0.40;0.40;;;;;;;2.64;90.16;98829.50;5103269;28;20024;-65
2020/12/31 09:27:36;;;;;;;0.40;0.40;;;;;;;2.68;90.72;98830.38;5103161;28;20020;-67
2020/12/31 09:30:06;;;;;;;0.40;0.40;;;;;;;2.75;89.96;98833.78;5103105;28;20034;-66
2020/12/31 09:32:32;;;;;;;0.30;0.30;;;;;;;2.81;89.43;98831.19;5103504;28;20028;-66
2020/12/31 09:34:57;;;;;;;0.40;0.40;;;;;;;2.76;89.85;98836.34;5118936;28;20074;-66
2020/12/31 09:37:23;;;;;;;0.40;0.40;;;;;;;2.79;89.83;98838.91;5103317;28;20044;-67
2020/12/31 09:39:48;;;;;;;0.40;0.40;;;;;;;2.75;90.05;98833.78;5103039;28;20501;-68
2020/12/31 09:42:14;;;;;;;0.30;0.30;;;;;;;2.80;90.27;98835.47;5101838;28;20020;-66
2020/12/31 09:44:39;;;;;;;0.40;0.40;;;;;;;2.86;90.21;98829.47;5119059;28;20020;-67
2020/12/31 09:47:07;;;;;;;0.40;0.40;;;;;;;2.90;89.86;98825.19;5103199;28;20046;-65
2020/12/31 09:49:33;;;;;;;0.40;0.40;;;;;;;2.92;89.70;98824.34;5103294;28;20039;-67
2020/12/31 09:51:59;;;;;;;0.30;0.30;;;;;;;2.92;89.88;98826.91;5103391;28;20024;-66
2020/12/31 09:54:24;;;;;;;0.30;0.30;;;;;;;2.93;89.99;98826.03;5103087;28;20506;-65
2020/12/31 09:56:50;;;;;;;0.40;0.40;;;;;;;3.13;89.45;98837.09;5103122;28;20024;-65
2020/12/31 09:59:15;;;;;;;0.40;0.40;;;;;;;3.11;89.02;98839.66;5102966;28;20048;-66
2020/12/31 10:01:41;;;;;;;0.40;0.40;;;;;;;3.12;88.60;98837.94;5103246;28;20020;-66
2020/12/31 10:04:07;;;;;;;0.40;0.40;;;;;;;3.14;88.63;98842.22;5103080;28;20533;-65
2020/12/31 10:06:32;;;;;;;0.32;0.32;;;;;;;2.99;88.90;98839.72;5103091;28;20054;-65
2020/12/31 10:09:00;;;;;;;0.32;0.32;;;;;;;2.98;89.11;98841.41;5103036;28;20024;-68
2020/12/31 10:11:26;;;;;;;0.30;0.30;;;;;;;3.10;88.27;98843.94;5103018;28;20030;-68
2020/12/31 10:13:51;;;;;;;0.40;0.40;;;;;;;2.99;88.70;98848.22;5103218;28;20127;-64
2020/12/31 10:16:16;;;;;;;0.30;0.30;;;;;;;2.97;89.12;98848.22;5106624;28;20025;-64
2020/12/31 10:18:42;;;;;;;0.40;0.40;;;;;;;2.99;88.98;98848.22;5106527;28;20046;-65
2020/12/31 10:21:07;;;;;;;0.32;0.32;;;;;;;3.05;89.00;98847.38;5106548;28;20024;-65
2020/12/31 10:23:33;;;;;;;0.30;0.30;;;;;;;2.99;89.09;98853.34;5106577;28;20048;-64
2020/12/31 10:25:58;;;;;;;0.40;0.40;;;;;;;3.06;88.38;98857.63;5106352;28;20035;-65
2020/12/31 10:28:24;;;;;;;0.30;0.30;;;;;;;3.01;88.67;98856.78;5106361;28;20097;-65
2020/12/31 10:30:50;;;;;;;0.40;0.40;;;;;;;2.99;89.04;98867.91;5106385;28;20020;-66
2020/12/31 10:33:15;;;;;;;0.30;0.30;;;;;;;2.93;89.35;98856.81;5106298;28;20442;-67
2020/12/31 10:35:41;;;;;;;0.40;0.40;;;;;;;2.88;89.39;98845.69;5106208;28;20024;-65
2020/12/31 10:38:07;;;;;;;0.40;0.40;;;;;;;3.00;89.51;98872.16;5121701;28;20068;-63
2020/12/31 10:40:32;;;;;;;0.40;0.40;;;;;;;3.00;89.58;98865.34;5105938;28;20039;-62
2020/12/31 10:42:58;;;;;;;0.40;0.40;;;;;;;3.01;89.67;98868.75;5105919;28;20154;-63
2020/12/31 10:45:23;;;;;;;0.30;0.30;;;;;;;3.03;89.70;98867.03;5106169;28;20020;-65
2020/12/31 10:47:49;;;;;;;0.40;0.40;;;;;;;3.02;89.81;98863.59;5106083;28;20494;-64
2020/12/31 10:50:14;;;;;;;0.40;0.40;;;;;;;3.07;89.50;98866.16;5105944;28;20035;-65
2020/12/31 10:52:39;;;;;;;0.40;0.40;;;;;;;3.14;89.17;98861.88;5105958;28;20085;-64
2020/12/31 10:55:05;;;;;;;0.40;0.40;;;;;;;3.10;89.50;98867.00;5105817;28;20028;-64
2020/12/31 10:57:30;;;;;;;0.30;0.30;;;;;;;3.11;89.55;98862.75;5105622;28;20038;-65
2020/12/31 10:59:56;;;;;;;0.40;0.40;;;;;;;3.09;89.76;98859.31;5105714;28;20107;-64
2020/12/31 11:02:21;;;;;;;0.40;0.40;;;;;;;3.17;89.01;98869.56;5105931;28;20335;-64
2020/12/31 11:04:46;;;;;;;0.40;0.40;;;;;;;3.17;89.42;98861.84;5105652;28;20088;-65
2020/12/31 11:07:12;;;;;;;0.40;0.40;;;;;;;3.17;89.34;98859.28;5105792;28;20046;-64
2020/12/31 11:09:37;;;;;;;0.30;0.30;;;;;;;3.22;89.16;98865.28;5105830;28;20038;-64
2020/12/31 11:12:03;;;;;;;0.30;0.30;;;;;;;3.24;88.98;98866.13;5105399;28;20023;-64
2020/12/31 11:14:28;;;;;;;0.30;0.30;;;;;;;3.35;89.02;98868.66;5105842;28;20131;-64
2020/12/31 11:16:53;;;;;;;0.30;0.30;;;;;;;3.30;88.82;98875.50;5105584;28;20052;-63
2020/12/31 11:19:19;;;;;;;0.30;0.30;;;;;;;3.22;89.28;98867.84;5121179;28;20038;-63
2020/12/31 11:21:45;;;;;;;0.40;0.40;;;;;;;3.24;89.33;98865.25;5105351;28;20024;-63
2020/12/31 11:24:10;;;;;;;0.30;0.30;;;;;;;3.27;89.46;98872.94;5105576;28;20028;-64
2020/12/31 11:26:36;;;;;;;0.40;0.40;;;;;;;3.39;89.01;98870.34;5105008;28;20031;-62
2020/12/31 11:29:02;;;;;;;0.30;0.30;;;;;;;3.34;89.17;98862.66;5105168;28;20110;-64
2020/12/31 11:31:29;;;;;;;2.92;2.72;;;;;;;3.35;88.95;98864.34;5105045;28;20161;-63
2020/12/31 11:33:55;;;;;;;0.38;0.38;;;;;;;3.37;88.96;98879.75;5105393;28;20050;-62
2020/12/31 11:36:22;;;;;;;0.40;0.40;;;;;;;3.40;88.80;98860.94;5104823;28;20020;-64
2020/12/31 11:38:49;;;;;;;0.50;0.50;;;;;;;3.49;88.31;98871.16;5105236;28;20083;-64
2020/12/31 11:41:17;;;;;;;0.40;0.40;;;;;;;3.49;88.16;98866.03;5104889;28;20044;-63
2020/12/31 11:43:43;;;;;;;0.40;0.40;;;;;;;3.47;88.35;98881.44;5104762;28;20038;-64
2020/12/31 11:46:09;;;;;;;0.40;0.40;;;;;;;3.42;88.54;98870.31;5104896;28;20188;-62